Time;durP1;ratioP1;P1;durP2;ratioP2;P2;SDS_P1;SDS_P2;PMS_P1;PMS_P2;Temp;Humidity;BMP_temperature;BMP_pressure;BME280_temperature;BME280_humidity;BME280_pressure;Samples;Min_cycle;Max_cycle;Signal;HPM_P1;HPM_P2
2021/08/19 00:02:59;;;;;;;18.17;11.60;;;;;;;21.10;75.75;99260.53;1734587;79;21219;-81
2021/08/19 00:06:05;;;;;;;19.40;11.70;;;;;;;21.06;75.73;99256.62;1725054;81;21254;-81
2021/08/19 00:09:12;;;;;;;19.02;12.25;;;;;;;21.03;75.73;99257.70;1726253;82;21212;-80
2021/08/19 00:12:19;;;;;;;15.45;11.57;;;;;;;20.98;75.91;99252.95;1715966;83;21838;-80
2021/08/19 00:15:24;;;;;;;18.62;11.78;;;;;;;20.96;76.18;99253.80;1725711;82;21842;-80
2021/08/19 00:18:31;;;;;;;27.00;12.47;;;;;;;20.93;76.47;99260.71;1707436;83;21161;-81
2021/08/19 00:21:38;;;;;;;19.82;12.75;;;;;;;20.91;76.58;99267.11;1722877;82;21227;-80
2021/08/19 00:24:44;;;;;;;21.87;12.90;;;;;;;20.87;76.83;99264.58;1729185;82;21226;-81
2021/08/19 00:27:49;;;;;;;25.10;13.20;;;;;;;20.86;76.94;99262.08;1718378;81;22496;-80
2021/08/19 00:30:56;;;;;;;28.42;12.25;;;;;;;20.84;76.93;99265.14;1720769;82;21252;-80
2021/08/19 00:34:02;;;;;;;25.85;13.55;;;;;;;20.83;76.92;99265.38;1741612;81;21381;-81
2021/08/19 00:37:08;;;;;;;27.55;12.95;;;;;;;20.80;76.92;99262.61;1698319;83;21349;-80
2021/08/19 00:40:16;;;;;;;20.48;12.07;;;;;;;20.78;77.04;99258.41;1690200;83;21351;-80
2021/08/19 00:43:21;;;;;;;19.80;12.85;;;;;;;20.75;77.17;99258.41;1722745;82;21834;-81
2021/08/19 00:46:38;;;;;;;21.00;11.93;;;;;;;20.72;77.47;99249.77;1675961;84;21225;-80
2021/08/19 00:49:48;;;;;;;19.62;11.93;;;;;;;20.70;77.74;99254.19;1718327;82;21326;-80
2021/08/19 00:52:55;;;;;;;24.40;12.63;;;;;;;20.70;78.00;99256.13;1714201;81;21244;-81
2021/08/19 00:56:00;;;;;;;17.65;12.63;;;;;;;20.66;78.09;99251.12;1727744;81;21361;-80
2021/08/19 00:59:06;;;;;;;20.23;13.20;;;;;;;20.65;78.18;99252.77;1717864;82;21865;-80
2021/08/19 01:02:12;;;;;;;17.77;12.50;;;;;;;20.64;78.27;99251.93;1721553;81;21204;-80
2021/08/19 01:05:26;;;;;;;26.70;13.18;;;;;;;20.62;78.35;99250.55;1715378;82;21386;-80
2021/08/19 01:08:33;;;;;;;19.45;13.10;;;;;;;20.61;78.46;99251.09;1717883;82;21247;-81
2021/08/19 01:11:39;;;;;;;21.57;13.98;;;;;;;20.58;78.61;99250.23;1704242;82;21339;-80
2021/08/19 01:14:45;;;;;;;24.05;13.40;;;;;;;20.55;78.79;99252.14;1724234;82;21239;-80
2021/08/19 01:17:54;;;;;;;27.95;14.43;;;;;;;20.50;78.96;99254.89;1706302;82;21334;-80
2021/08/19 01:21:00;;;;;;;22.00;14.55;;;;;;;20.47;79.20;99252.67;1710210;82;21787;-81
2021/08/19 01:24:07;;;;;;;26.95;14.55;;;;;;;20.41;79.49;99246.18;1682085;82;21390;-81
2021/08/19 01:27:15;;;;;;;25.20;14.05;;;;;;;20.38;79.69;99248.67;1706294;81;21759;-80
2021/08/19 01:30:21;;;;;;;21.90;14.20;;;;;;;20.33;79.44;99249.48;1730955;82;21228;-80
2021/08/19 01:33:30;;;;;;;24.00;14.75;;;;;;;20.27;79.38;99244.13;1731638;80;21774;-80
2021/08/19 01:36:35;;;;;;;23.70;15.28;;;;;;;20.23;79.67;99249.92;1719404;82;21264;-80
2021/08/19 01:39:43;;;;;;;26.68;15.50;;;;;;;20.17;79.98;99251.27;1727637;82;21354;-80
2021/08/19 01:42:51;;;;;;;23.98;15.00;;;;;;;20.15;80.13;99256.27;1692819;83;21221;-80
2021/08/19 01:45:56;;;;;;;36.45;19.23;;;;;;;20.15;80.27;99251.27;1714659;82;21763;-81
2021/08/19 01:49:03;;;;;;;39.42;20.48;;;;;;;20.14;80.28;99241.27;1716534;82;21212;-81
2021/08/19 01:52:16;;;;;;;41.50;22.85;;;;;;;20.13;80.14;99245.13;1715381;82;21315;-80
2021/08/19 01:55:22;;;;;;;48.98;22.93;;;;;;;20.10;80.04;99250.67;1687555;83;21208;-80
2021/08/19 01:58:28;;;;;;;43.33;23.65;;;;;;;20.08;79.97;99248.69;1692320;83;21334;-81
2021/08/19 02:01:35;;;;;;;47.10;24.82;;;;;;;20.05;79.93;99250.62;1675183;84;21347;-80
2021/08/19 02:04:41;;;;;;;49.73;25.75;;;;;;;20.02;80.00;99252.53;1677404;84;21353;-80
2021/08/19 02:07:48;;;;;;;44.48;22.70;;;;;;;19.99;80.11;99244.72;1687570;83;21216;-80
2021/08/19 02:10:54;;;;;;;42.35;23.85;;;;;;;19.96;80.17;99248.05;1674591;83;21229;-80
2021/08/19 02:13:59;;;;;;;48.68;25.17;;;;;;;19.90;80.50;99235.20;1728912;81;21243;-80
2021/08/19 02:17:06;;;;;;;46.37;23.90;;;;;;;19.88;80.74;99245.74;1694102;83;21245;-80
2021/08/19 02:20:13;;;;;;;53.23;24.00;;;;;;;19.87;80.91;99244.08;1721345;82;21760;-80
2021/08/19 02:23:18;;;;;;;44.88;23.52;;;;;;;19.84;81.02;99242.64;1714306;81;21382;-81
2021/08/19 02:26:23;;;;;;;46.83;23.80;;;;;;;19.81;81.10;99249.30;1735123;81;22019;-80
2021/08/19 02:29:29;;;;;;;50.20;25.55;;;;;;;19.77;81.13;99248.98;1714444;81;21227;-81
2021/08/19 02:32:34;;;;;;;42.35;23.80;;;;;;;19.72;81.22;99241.16;1715878;82;21335;-80
2021/08/19 02:35:39;;;;;;;47.00;24.72;;;;;;;19.66;81.38;99243.84;1723418;81;21330;-80
2021/08/19 02:38:45;;;;;;;47.45;26.25;;;;;;;19.62;81.51;99245.50;1737115;81;21323;-80
2021/08/19 02:41:51;;;;;;;50.92;25.82;;;;;;;19.58;81.67;99251.24;1696550;83;21773;-81
2021/08/19 02:44:58;;;;;;;44.13;26.25;;;;;;;19.54;81.78;99250.08;1686710;83;21709;-80
2021/08/19 02:48:04;;;;;;;41.05;25.23;;;;;;;19.49;81.99;99258.35;1668048;84;21232;-80
2021/08/19 02:51:09;;;;;;;55.23;25.70;;;;;;;19.43;82.25;99252.44;1664731;85;21293;-81
2021/08/19 02:54:14;;;;;;;43.20;24.80;;;;;;;19.38;82.53;99252.38;1684110;83;21386;-81
2021/08/19 02:57:21;;;;;;;42.50;24.57;;;;;;;19.36;82.80;99249.88;1676920;83;21236;-80
2021/08/19 03:00:27;;;;;;;44.40;24.35;;;;;;;19.35;83.10;99250.15;1689822;83;21235;-80
2021/08/19 03:03:34;;;;;;;45.88;25.62;;;;;;;19.36;83.30;99253.20;1657787;84;21232;-80
2021/08/19 03:06:39;;;;;;;46.83;25.60;;;;;;;19.38;83.43;99255.16;1675481;84;21896;-80
2021/08/19 03:09:46;;;;;;;44.18;23.70;;;;;;;19.41;83.47;99249.10;1679488;85;21351;-81
2021/08/19 03:12:51;;;;;;;45.43;22.70;;;;;;;19.45;83.31;99251.64;1720846;82;21247;-80
2021/08/19 03:15:57;;;;;;;46.58;23.83;;;;;;;19.49;83.21;99251.97;1702136;84;21335;-80
2021/08/19 03:19:03;;;;;;;42.40;21.87;;;;;;;19.51;83.08;99256.14;1728795;82;21212;-80
2021/08/19 03:22:09;;;;;;;40.33;21.23;;;;;;;19.56;83.01;99258.97;1697129;83;21369;-80
2021/08/19 03:25:17;;;;;;;39.95;21.25;;;;;;;19.64;82.83;99265.48;1672959;83;21335;-80
2021/08/19 03:28:23;;;;;;;42.58;21.65;;;;;;;19.71;82.59;99261.09;1664455;85;21335;-80
2021/08/19 03:31:28;;;;;;;37.55;20.52;;;;;;;19.78;82.41;99266.45;1720846;81;21223;-81
2021/08/19 03:34:35;;;;;;;34.53;21.82;;;;;;;19.87;82.17;99270.44;1714800;81;21337;-81
2021/08/19 03:37:40;;;;;;;35.45;18.73;;;;;;;19.95;82.01;99276.91;1712473;82;21783;-80
2021/08/19 03:40:45;;;;;;;39.85;20.27;;;;;;;20.05;81.82;99272.83;1696996;83;21343;-80
2021/08/19 03:43:51;;;;;;;37.75;20.85;;;;;;;20.16;81.57;99277.36;1721003;81;21338;-80
2021/08/19 03:46:58;;;;;;;36.80;21.55;;;;;;;20.28;81.26;99277.20;1679469;84;21229;-80
2021/08/19 03:50:07;;;;;;;47.10;22.98;;;;;;;20.41;80.97;99290.61;1663053;84;21424;-80
2021/08/19 03:53:12;;;;;;;37.83;22.37;;;;;;;20.53;80.55;99287.70;1695019;83;21359;-81
2021/08/19 03:56:17;;;;;;;34.33;18.98;;;;;;;20.66;80.16;99285.02;1704719;82;21373;-80
2021/08/19 03:59:24;;;;;;;36.75;21.20;;;;;;;20.80;79.92;99286.23;1722561;82;21349;-81
2021/08/19 04:02:29;;;;;;;33.35;20.48;;;;;;;20.95;79.41;99287.43;1734186;81;21919;-80
2021/08/19 04:05:35;;;;;;;36.85;20.37;;;;;;;21.11;78.91;99290.00;1694548;83;21848;-80
2021/08/19 04:08:41;;;;;;;36.30;21.93;;;;;;;21.25;78.31;99284.79;1715299;81;21855;-80
2021/08/19 04:11:47;;;;;;;33.28;19.90;;;;;;;21.38;77.75;99287.67;1720210;82;21327;-81
2021/08/19 04:14:52;;;;;;;34.90;18.80;;;;;;;21.50;77.46;99293.84;1694317;82;21315;-81
2021/08/19 04:17:59;;;;;;;34.00;17.73;;;;;;;21.58;76.79;99290.52;1711893;82;21282;-81
2021/08/19 04:21:06;;;;;;;31.20;18.77;;;;;;;21.61;76.48;99289.14;1730251;81;21318;-80
2021/08/19 04:24:12;;;;;;;27.62;17.10;;;;;;;21.66;76.40;99297.51;1721814;82;21790;-81
2021/08/19 04:27:19;;;;;;;36.95;18.67;;;;;;;21.76;76.18;99300.87;1714216;82;21925;-81
2021/08/19 04:30:24;;;;;;;27.25;16.02;;;;;;;21.87;75.78;99303.39;1705656;81;21315;-81
2021/08/19 04:33:29;;;;;;;31.45;17.98;;;;;;;21.93;75.37;99298.70;1696720;83;21235;-81
2021/08/19 04:36:34;;;;;;;38.25;16.90;;;;;;;21.97;75.23;99298.40;1689911;83;21344;-81
2021/08/19 04:39:40;;;;;;;26.68;15.30;;;;;;;22.01;75.25;99297.30;1692707;83;21343;-80
2021/08/19 04:42:46;;;;;;;33.58;16.60;;;;;;;22.05;75.32;99309.56;1723780;82;21386;-80
2021/08/19 04:45:52;;;;;;;24.60;17.35;;;;;;;22.12;75.26;99306.00;1708190;82;21347;-80
2021/08/19 04:48:59;;;;;;;24.27;16.27;;;;;;;22.20;75.09;99306.82;1719109;82;21232;-80
2021/08/19 04:52:07;;;;;;;28.67;16.73;;;;;;;22.32;75.01;99301.00;1699653;83;21191;-81
2021/08/19 04:55:15;;;;;;;30.27;17.12;;;;;;;22.48;74.68;99306.00;1697143;83;21711;-81
2021/08/19 04:58:21;;;;;;;31.20;16.40;;;;;;;22.59;74.28;99297.94;1723914;82;21338;-81
2021/08/19 05:01:27;;;;;;;30.40;17.67;;;;;;;22.69;74.36;99301.55;1718302;82;21287;-82
2021/08/19 05:04:32;;;;;;;30.23;16.12;;;;;;;22.84;73.90;99302.64;1721257;82;21918;-81
2021/08/19 05:07:38;;;;;;;24.00;16.12;;;;;;;22.97;73.54;99312.41;1718609;81;21787;-81
2021/08/19 05:10:45;;;;;;;26.20;16.55;;;;;;;23.07;73.27;99314.61;1751371;80;21298;-81
2021/08/19 05:13:52;;;;;;;29.30;15.80;;;;;;;23.20;72.97;99317.38;1780424;80;21382;-79
2021/08/19 05:16:57;;;;;;;23.85;14.20;;;;;;;23.33;72.50;99311.73;1778922;80;21192;-79
2021/08/19 05:20:04;;;;;;;22.62;16.17;;;;;;;23.43;72.49;99306.97;1729223;81;21244;-80
2021/08/19 05:23:11;;;;;;;32.05;15.78;;;;;;;23.53;72.07;99303.30;1730548;81;21306;-81
2021/08/19 05:26:16;;;;;;;23.50;15.72;;;;;;;23.65;71.89;99303.81;1742548;80;21355;-81
2021/08/19 05:29:22;;;;;;;22.07;15.43;;;;;;;23.76;71.10;99298.17;1730000;82;21345;-80
2021/08/19 05:32:28;;;;;;;22.93;16.40;;;;;;;23.81;70.55;99306.55;1750709;79;21227;-80
2021/08/19 05:35:40;;;;;;;26.95;15.38;;;;;;;23.82;70.81;99303.46;1700795;81;21224;-80
2021/08/19 05:38:50;;;;;;;26.42;15.30;;;;;;;23.97;71.11;99304.77;1693668;82;21768;-80
2021/08/19 05:41:58;;;;;;;24.75;16.30;;;;;;;24.08;70.55;99313.90;1714797;81;21185;-80
2021/08/19 05:45:04;;;;;;;19.73;15.18;;;;;;;24.09;70.20;99308.61;1758343;79;21402;-79
2021/08/19 05:48:11;;;;;;;26.97;15.40;;;;;;;24.09;70.35;99319.78;1736317;80;21887;-80
2021/08/19 05:51:17;;;;;;;24.75;15.68;;;;;;;24.12;70.53;99312.20;1741926;78;21238;-81
2021/08/19 05:54:24;;;;;;;27.67;15.70;;;;;;;24.20;70.54;99315.78;1748403;80;21402;-80
2021/08/19 05:57:31;;;;;;;22.95;15.60;;;;;;;24.26;70.08;99319.94;1711866;81;21449;-80
2021/08/19 06:00:36;;;;;;;32.95;15.45;;;;;;;24.30;69.82;99326.61;1747975;80;21298;-79
2021/08/19 06:03:46;;;;;;;28.87;15.28;;;;;;;24.38;70.15;99307.87;1737259;81;21194;-81
2021/08/19 06:06:51;;;;;;;22.25;14.75;;;;;;;24.46;70.03;99310.85;1743185;79;21262;-81
2021/08/19 06:09:57;;;;;;;25.23;14.83;;;;;;;24.51;69.57;99306.34;1755118;79;21862;-80
2021/08/19 06:13:03;;;;;;;25.00;15.20;;;;;;;24.53;69.24;99302.16;1750118;79;21241;-85
2021/08/19 06:16:08;;;;;;;31.48;16.42;;;;;;;24.60;69.71;99304.03;1730421;80;21349;-78
2021/08/19 06:19:15;;;;;;;27.67;14.93;;;;;;;24.74;69.31;99297.19;1690423;82;21607;-81
2021/08/19 06:22:21;;;;;;;25.32;14.30;;;;;;;24.89;67.82;99300.41;1673671;82;21208;-81
2021/08/19 06:25:32;;;;;;;30.32;14.58;;;;;;;25.01;67.90;99303.64;1690954;83;21264;-81
2021/08/19 06:28:35;;;;;;;31.23;15.83;;;;;;;25.17;67.35;99310.80;1694285;82;21704;-80
2021/08/19 06:31:41;;;;;;;26.35;16.30;;;;;;;25.33;67.36;99309.20;1717075;82;21296;-81
2021/08/19 06:34:48;;;;;;;28.07;17.40;;;;;;;25.41;65.54;99314.16;1737530;81;21198;-79
2021/08/19 06:37:53;;;;;;;30.55;18.02;;;;;;;25.37;65.70;99315.88;1750358;79;21216;-80
2021/08/19 06:40:58;;;;;;;30.08;16.02;;;;;;;25.38;65.87;99316.97;1716346;82;21283;-80
2021/08/19 06:44:03;;;;;;;37.78;16.23;;;;;;;25.44;65.68;99308.77;1768493;78;22557;-81
2021/08/19 06:47:16;;;;;;;27.32;14.95;;;;;;;25.56;65.53;99312.56;1772789;79;21283;-80
2021/08/19 06:50:37;;;;;;;27.17;15.98;;;;;;;25.65;65.41;99300.97;1739637;81;21248;-82
2021/08/19 06:53:48;;;;;;;25.48;15.13;;;;;;;25.79;63.70;99303.06;1744835;79;21464;-83
2021/08/19 06:57:04;;;;;;;29.00;15.70;;;;;;;25.89;62.58;99288.34;1819768;76;22691;-79
2021/08/19 07:00:12;;;;;;;31.65;15.78;;;;;;;25.88;62.86;99299.28;1772726;79;21315;-79
2021/08/19 07:03:24;;;;;;;30.20;15.68;;;;;;;25.89;61.52;99300.95;1771686;80;21272;-78
2021/08/19 07:06:33;;;;;;;25.17;15.20;;;;;;;25.86;62.33;99286.13;1764450;80;21268;-86
2021/08/19 07:09:42;;;;;;;23.50;14.95;;;;;;;25.90;63.38;99290.00;1761490;80;21291;-87
2021/08/19 07:12:53;;;;;;;34.25;15.43;;;;;;;25.98;63.32;99289.90;1758245;80;21188;-87
2021/08/19 07:15:59;;;;;;;24.37;14.35;;;;;;;26.07;62.70;99290.88;1765764;79;21162;-86
2021/08/19 07:19:06;;;;;;;24.23;15.43;;;;;;;26.14;62.43;99288.52;1761655;79;21334;-87
2021/08/19 07:22:11;;;;;;;25.95;15.78;;;;;;;26.21;61.49;99292.36;1770365;79;21270;-87
2021/08/19 07:25:21;;;;;;;27.10;16.70;;;;;;;26.27;62.59;99291.13;1764231;80;21344;-88
2021/08/19 07:28:30;;;;;;;32.23;18.00;;;;;;;26.36;60.85;99301.92;1766266;80;21550;-87
2021/08/19 07:31:38;;;;;;;33.75;19.37;;;;;;;26.42;60.94;99291.45;1764503;80;21156;-87
2021/08/19 07:34:44;;;;;;;31.97;19.25;;;;;;;26.53;60.11;99285.95;1767412;80;21331;-78
2021/08/19 07:38:00;;;;;;;31.87;20.55;;;;;;;26.61;59.61;99282.45;1761043;80;21156;-88
2021/08/19 07:41:06;;;;;;;34.92;20.57;;;;;;;26.65;60.18;99287.72;1763758;79;21157;-88
2021/08/19 07:44:12;;;;;;;31.25;18.85;;;;;;;26.72;58.63;99286.77;1784588;79;21141;-87
2021/08/19 07:47:19;;;;;;;40.50;22.27;;;;;;;26.74;59.73;99294.28;1751978;80;21259;-79
2021/08/19 07:50:24;;;;;;;31.10;18.48;;;;;;;26.78;59.94;99287.50;1772920;80;21149;-79
2021/08/19 07:53:31;;;;;;;37.15;20.08;;;;;;;26.86;60.22;99288.73;1763182;80;21140;-87
2021/08/19 07:56:37;;;;;;;32.00;18.57;;;;;;;26.95;59.51;99291.09;1768921;80;21248;-88
2021/08/19 07:59:43;;;;;;;38.08;18.07;;;;;;;27.12;58.50;99293.34;1762985;81;21794;-86
2021/08/19 08:02:51;;;;;;;37.73;20.30;;;;;;;27.27;58.45;99288.83;1759347;81;21836;-87
2021/08/19 08:05:57;;;;;;;34.92;18.35;;;;;;;27.38;57.95;99279.61;1741537;81;21347;-79
2021/08/19 08:09:03;;;;;;;32.98;17.60;;;;;;;27.49;57.02;99279.68;1770021;81;21683;-78
2021/08/19 08:12:09;;;;;;;27.52;14.98;;;;;;;27.58;56.57;99287.63;1749979;80;21458;-87
2021/08/19 08:15:16;;;;;;;31.45;16.45;;;;;;;27.68;55.92;99286.58;1757034;81;21817;-87
2021/08/19 08:18:24;;;;;;;26.87;16.07;;;;;;;27.79;56.26;99281.02;1743496;81;22002;-87
2021/08/19 08:21:30;;;;;;;26.40;14.55;;;;;;;27.89;56.86;99275.73;1730329;81;21851;-88
2021/08/19 08:24:36;;;;;;;26.17;14.13;;;;;;;27.97;56.26;99272.19;1755731;81;21133;-87
2021/08/19 08:27:44;;;;;;;18.50;13.28;;;;;;;28.03;55.36;99268.09;1768424;81;21303;-87
2021/08/19 08:30:51;;;;;;;25.57;14.78;;;;;;;28.08;54.68;99266.56;1756809;81;21857;-78
2021/08/19 08:33:57;;;;;;;31.40;15.68;;;;;;;28.16;54.28;99263.00;1761431;81;21738;-78
2021/08/19 08:37:03;;;;;;;32.42;14.70;;;;;;;28.26;53.51;99264.16;1759329;81;21342;-76
2021/08/19 08:40:10;;;;;;;28.70;14.10;;;;;;;28.31;53.92;99256.17;1754115;79;22314;-79
2021/08/19 08:43:17;;;;;;;30.10;14.68;;;;;;;28.36;53.73;99247.64;1760224;81;21154;-79
2021/08/19 08:46:23;;;;;;;27.15;14.07;;;;;;;28.52;53.13;99240.48;1754487;81;21126;-79
2021/08/19 08:49:28;;;;;;;25.35;13.98;;;;;;;28.52;53.13;99240.48;1751227;81;21259;-80
2021/08/19 08:52:34;;;;;;;28.20;14.43;;;;;;;28.58;53.01;99255.24;1754158;79;21165;-78
2021/08/19 08:55:40;;;;;;;23.12;14.83;;;;;;;28.63;52.72;99260.73;1757750;81;21275;-79
2021/08/19 08:58:47;;;;;;;21.75;13.08;;;;;;;28.67;52.08;99261.75;1775654;80;21295;-88
2021/08/19 09:01:53;;;;;;;26.07;14.73;;;;;;;28.73;52.37;99252.59;1784030;79;21315;-86
2021/08/19 09:05:22;;;;;;;31.37;14.35;;;;;;;28.80;51.20;99249.34;1784973;80;21260;-78
2021/08/19 09:08:29;;;;;;;20.75;14.30;;;;;;;28.80;51.20;99249.34;1770410;80;21145;-79
2021/08/19 09:11:39;;;;;;;23.65;14.03;;;;;;;28.83;51.19;99255.71;1761092;80;21228;-78
2021/08/19 09:14:48;;;;;;;21.33;13.28;;;;;;;28.88;52.12;99253.58;1774881;80;21284;-78
2021/08/19 09:17:56;;;;;;;30.65;13.62;;;;;;;28.95;52.07;99248.95;1768440;80;21801;-87
2021/08/19 09:21:02;;;;;;;27.07;14.07;;;;;;;28.96;52.11;99247.20;1778264;80;21303;-79
2021/08/19 09:24:29;;;;;;;29.30;15.40;;;;;;;29.06;51.43;99245.27;1767948;79;21256;-87
2021/08/19 09:27:40;;;;;;;24.12;14.70;;;;;;;29.06;51.43;99245.27;1763999;80;21258;-87
2021/08/19 09:30:48;;;;;;;22.58;13.48;;;;;;;29.15;52.08;99246.95;1761815;79;21294;-87
2021/08/19 09:33:52;;;;;;;27.25;14.68;;;;;;;29.20;51.57;99245.40;1771571;79;21260;-79
2021/08/19 09:37:11;;;;;;;25.82;14.25;;;;;;;29.19;51.23;99244.33;1754076;80;21156;-79
2021/08/19 09:40:18;;;;;;;27.85;14.15;;;;;;;29.18;50.65;99243.50;1750928;80;21809;-79
2021/08/19 09:43:24;;;;;;;25.45;14.78;;;;;;;29.22;50.66;99244.52;1765075;80;21316;-87
2021/08/19 09:46:43;;;;;;;30.02;13.83;;;;;;;29.27;50.65;99248.59;1750742;80;21341;-87
2021/08/19 09:49:48;;;;;;;;;;;;;;;29.34;50.12;99244.45;1766673;80;21133;-80
2021/08/19 09:52:57;;;;;;;25.50;13.90;;;;;;;29.44;49.26;99244.15;1765995;80;20216;-79
2021/08/19 09:56:04;;;;;;;21.23;13.85;;;;;;;29.46;49.73;99249.72;1765127;80;21263;-86
2021/08/19 09:59:34;;;;;;;29.85;14.30;;;;;;;29.46;49.73;99249.72;1764651;80;21817;-78
2021/08/19 10:02:37;;;;;;;24.10;13.53;;;;;;;29.49;50.10;99235.55;1763663;80;21312;-79
2021/08/19 10:05:42;;;;;;;23.90;14.03;;;;;;;29.61;49.57;99227.91;1766814;80;21247;-79
2021/08/19 10:08:48;;;;;;;28.83;14.80;;;;;;;29.62;50.51;99234.61;1765692;79;21835;-79
2021/08/19 10:11:55;;;;;;;34.25;14.40;;;;;;;29.72;49.96;99244.16;1768863;79;21310;-87
2021/08/19 10:15:02;;;;;;;28.50;14.53;;;;;;;29.78;50.08;99230.73;1764486;80;21793;-88
2021/08/19 10:18:08;;;;;;;26.35;14.50;;;;;;;29.85;49.76;99238.72;1767673;80;21943;-79
2021/08/19 10:21:21;;;;;;;28.27;14.93;;;;;;;29.90;49.38;99231.50;1766095;80;21289;-79
2021/08/19 10:24:37;;;;;;;32.60;14.25;;;;;;;29.98;49.24;99243.38;1762227;80;21170;-88
2021/08/19 10:27:42;;;;;;;27.95;14.75;;;;;;;30.04;49.77;99235.81;1768334;80;21170;-88
2021/08/19 10:31:03;;;;;;;22.70;13.38;;;;;;;30.13;49.66;99233.03;1760874;80;21172;-88
2021/08/19 10:34:10;;;;;;;25.32;13.85;;;;;;;30.21;49.48;99227.16;1751442;80;21284;-87
2021/08/19 10:37:15;;;;;;;26.68;14.35;;;;;;;30.28;49.53;99233.92;1759344;80;21699;-88
2021/08/19 10:40:34;;;;;;;29.37;14.03;;;;;;;30.32;48.97;99238.91;1766203;80;21276;-89
2021/08/19 10:43:44;;;;;;;35.15;14.20;;;;;;;30.40;48.12;99238.91;1769507;80;22223;-88
2021/08/19 10:46:54;;;;;;;24.45;13.88;;;;;;;30.46;47.87;99228.27;1771123;80;21784;-88
2021/08/19 10:50:01;;;;;;;24.02;13.55;;;;;;;30.60;48.51;99223.27;1770031;80;21797;-88
2021/08/19 10:53:27;;;;;;;31.52;14.63;;;;;;;30.75;47.96;99225.56;1772222;80;21151;-86
2021/08/19 10:56:52;;;;;;;31.35;15.08;;;;;;;30.84;46.97;99215.67;1767142;80;21229;-78
2021/08/19 11:00:18;;;;;;;25.82;14.70;;;;;;;30.84;46.66;99214.84;1763184;79;21774;-78
2021/08/19 11:03:46;;;;;;;28.47;14.10;;;;;;;30.85;46.15;99210.26;1764765;81;21794;-78
2021/08/19 11:06:59;;;;;;;29.12;13.85;;;;;;;30.82;46.07;99203.05;1753137;81;21774;-78
2021/08/19 11:10:06;;;;;;;33.78;15.10;;;;;;;30.82;47.13;99198.80;1749906;81;21710;-78
2021/08/19 11:13:17;;;;;;;25.25;13.30;;;;;;;30.79;46.43;99201.74;1758282;81;21196;-78
2021/08/19 11:16:23;;;;;;;35.43;14.65;;;;;;;30.79;46.85;99194.69;1747690;79;21267;-78
2021/08/19 11:19:35;;;;;;;32.10;14.38;;;;;;;30.87;46.70;99202.89;1723245;82;21180;-78
2021/08/19 11:22:42;;;;;;;27.02;13.40;;;;;;;30.96;46.24;99198.86;1758715;81;21221;-78
2021/08/19 11:25:52;;;;;;;30.62;13.75;;;;;;;31.04;46.40;99200.80;1755292;79;21277;-89
2021/08/19 11:28:57;;;;;;;25.02;13.90;;;;;;;31.21;45.41;99199.89;1750061;81;21221;-88
2021/08/19 11:32:03;;;;;;;29.02;14.20;;;;;;;31.34;44.96;99198.63;1752035;79;21755;-79
2021/08/19 11:35:14;;;;;;;26.23;14.35;;;;;;;31.43;44.51;99193.72;1754693;81;21178;-88
2021/08/19 11:38:22;;;;;;;32.17;14.40;;;;;;;31.53;44.01;99199.00;1756954;79;58942;-80
2021/08/19 11:41:29;;;;;;;29.48;14.90;;;;;;;31.56;43.64;99189.81;1754694;80;21293;-80
2021/08/19 11:44:35;;;;;;;22.80;14.35;;;;;;;31.54;43.78;99183.69;1745710;81;21550;-79
2021/08/19 11:47:41;;;;;;;25.15;14.15;;;;;;;31.49;43.63;99182.48;1749235;80;21224;-80
2021/08/19 11:50:46;;;;;;;23.45;13.78;;;;;;;31.41;43.75;99176.30;1756149;80;21248;-80
2021/08/19 11:54:04;;;;;;;30.97;14.20;;;;;;;31.35;43.92;99172.02;1750385;80;21136;-80
2021/08/19 11:57:11;;;;;;;27.00;14.23;;;;;;;31.31;44.71;99177.52;1743751;80;21264;-80
2021/08/19 12:00:17;;;;;;;30.10;13.55;;;;;;;31.27;43.96;99164.66;1766957;79;21310;-80
2021/08/19 12:03:29;;;;;;;27.22;14.13;;;;;;;31.23;44.54;99151.53;1763141;80;21184;-80
2021/08/19 12:06:33;;;;;;;28.45;12.68;;;;;;;31.17;44.81;99143.84;1763713;80;21841;-80
2021/08/19 12:09:43;;;;;;;27.45;13.08;;;;;;;31.10;44.94;99144.12;1755516;80;21174;-80
2021/08/19 12:12:50;;;;;;;26.15;14.58;;;;;;;31.05;45.16;99158.70;1767253;80;21183;-80
2021/08/19 12:15:56;;;;;;;27.77;14.25;;;;;;;30.94;44.89;99156.00;1721866;81;21184;-79
2021/08/19 12:19:18;;;;;;;26.00;13.72;;;;;;;30.76;45.63;99151.02;1756303;80;21168;-80
2021/08/19 12:22:25;;;;;;;25.80;14.30;;;;;;;30.55;45.91;99138.22;1727737;81;21808;-80
2021/08/19 12:25:32;;;;;;;35.73;15.20;;;;;;;30.35;46.54;99140.36;1735792;81;21156;-81
2021/08/19 12:28:37;;;;;;;35.13;16.40;;;;;;;30.25;47.97;99150.01;1723898;81;21580;-81
2021/08/19 12:31:58;;;;;;;76.17;47.15;;;;;;;30.10;48.26;99157.53;1745012;80;21196;-80
2021/08/19 12:35:17;;;;;;;38.83;23.43;;;;;;;29.93;48.74;99156.98;1759745;80;21266;-80
2021/08/19 12:38:25;;;;;;;;;;;;;;;29.75;50.64;99150.52;1765212;80;21909;-79
2021/08/19 12:41:32;;;;;;;30.77;15.80;;;;;;;29.46;51.41;99137.05;1758350;80;20273;-80
2021/08/19 12:44:38;;;;;;;32.73;16.00;;;;;;;29.22;52.02;99133.30;1770629;81;21212;-80
2021/08/19 12:47:45;;;;;;;31.57;16.37;;;;;;;28.80;53.61;99150.28;1769370;81;21323;-79
2021/08/19 12:50:51;;;;;;;25.70;14.95;;;;;;;28.80;53.61;99150.28;1761968;79;21347;-81
2021/08/19 12:54:16;;;;;;;29.82;14.20;;;;;;;28.64;53.93;99149.86;1756987;80;21161;-81
2021/08/19 12:57:21;;;;;;;26.00;14.63;;;;;;;28.47;54.52;99167.50;1721727;82;21296;-81
2021/08/19 13:00:39;;;;;;;26.20;15.15;;;;;;;28.32;55.28;99181.08;1706824;82;21237;-81
2021/08/19 13:03:44;;;;;;;32.00;13.62;;;;;;;28.17;55.46;99185.95;1720677;82;21997;-81
2021/08/19 13:06:49;;;;;;;27.60;13.68;;;;;;;28.06;56.16;99189.36;1718415;82;21323;-81
2021/08/19 13:09:56;;;;;;;25.65;14.03;;;;;;;27.88;57.00;99194.00;1710748;82;21299;-81
2021/08/19 13:13:03;;;;;;;23.50;13.48;;;;;;;27.88;57.00;99194.00;1712898;82;21307;-81
2021/08/19 13:16:09;;;;;;;19.95;13.80;;;;;;;27.78;57.13;99180.20;1716395;82;21583;-81
2021/08/19 13:19:16;;;;;;;26.33;12.73;;;;;;;27.66;57.79;99181.54;1701886;82;21197;-81
2021/08/19 13:22:22;;;;;;;24.32;14.10;;;;;;;27.55;58.04;99153.45;1709293;83;21168;-81
2021/08/19 13:25:29;;;;;;;21.25;12.95;;;;;;;27.45;58.67;99141.05;1711857;82;21239;-81
2021/08/19 13:28:36;;;;;;;24.50;12.93;;;;;;;27.37;58.92;99130.56;1718642;82;21771;-81
2021/08/19 13:31:43;;;;;;;23.85;13.13;;;;;;;27.29;59.24;99117.27;1712948;83;21517;-81
2021/08/19 13:34:52;;;;;;;19.37;12.58;;;;;;;27.17;59.48;99103.80;1710874;83;21279;-81
2021/08/19 13:37:59;;;;;;;21.68;12.80;;;;;;;27.08;60.36;99093.02;1710505;83;21212;-80
2021/08/19 13:41:05;;;;;;;22.00;13.03;;;;;;;26.94;62.38;99089.66;1699838;83;21180;-80
2021/08/19 13:44:10;;;;;;;20.50;12.60;;;;;;;26.76;64.10;99104.64;1696222;84;21266;-81
2021/08/19 13:47:17;;;;;;;22.52;12.53;;;;;;;26.49;65.03;99123.72;1680324;83;21668;-80
2021/08/19 13:50:22;;;;;;;19.77;11.83;;;;;;;26.22;66.20;99146.88;1672893;85;21347;-80
2021/08/19 13:53:28;;;;;;;18.42;11.97;;;;;;;25.99;67.07;99168.30;1732163;82;21862;-80
2021/08/19 13:56:33;;;;;;;25.32;12.43;;;;;;;25.79;68.08;99182.06;1719153;83;21191;-80
2021/08/19 13:59:39;;;;;;;18.12;12.10;;;;;;;25.66;68.46;99204.62;1720453;83;21607;-81
2021/08/19 14:02:48;;;;;;;18.35;13.10;;;;;;;25.63;68.67;99217.81;1716622;83;21822;-81
2021/08/19 14:05:54;;;;;;;22.57;13.07;;;;;;;25.61;68.58;99215.89;1733565;82;21237;-80
2021/08/19 14:09:01;;;;;;;20.02;12.00;;;;;;;25.61;68.68;99210.87;1720887;82;21208;-80
2021/08/19 14:12:08;;;;;;;20.60;11.85;;;;;;;25.62;67.94;99206.92;1741216;82;21216;-80
2021/08/19 14:15:14;;;;;;;17.45;11.65;;;;;;;25.62;67.46;99189.56;1723067;82;21183;-80
2021/08/19 14:18:20;;;;;;;23.20;11.48;;;;;;;25.68;67.13;99191.70;1749957;82;21546;-80
2021/08/19 14:21:25;;;;;;;16.73;10.68;;;;;;;25.73;66.90;99181.25;1739155;82;21238;-80
2021/08/19 14:24:31;;;;;;;18.52;11.25;;;;;;;25.84;66.53;99181.16;1751597;82;21176;-79